Time;durP1;ratioP1;P1;durP2;ratioP2;P2;SDS_P1;SDS_P2;PMS_P1;PMS_P2;Temp;Humidity;BMP_temperature;BMP_pressure;BME280_temperature;BME280_humidity;BME280_pressure;Samples;Min_cycle;Max_cycle;Signal;HPM_P1;HPM_P2
2023/06/05 00:00:47;;;;;;;5.47;2.35;;;14.50;74.90;;;;;;4993918;28;20062;-73
2023/06/05 00:03:12;;;;;;;5.57;2.35;;;14.50;75.30;;;;;;4993805;28;20065;-72
2023/06/05 00:05:38;;;;;;;5.72;3.03;;;14.40;75.80;;;;;;4995020;28;20526;-73
2023/06/05 00:08:04;;;;;;;10.85;2.97;;;14.40;75.80;;;;;;4994879;28;20077;-73
2023/06/05 00:10:29;;;;;;;7.22;2.83;;;14.40;75.80;;;;;;4995141;28;20027;-73
2023/06/05 00:12:55;;;;;;;5.63;2.85;;;14.30;76.50;;;;;;4976685;28;20019;-72
2023/06/05 00:15:21;;;;;;;7.43;2.60;;;14.30;76.50;;;;;;4993521;28;20030;-72
2023/06/05 00:17:47;;;;;;;9.30;3.60;;;14.30;76.70;;;;;;4994708;28;20034;-73
2023/06/05 00:20:12;;;;;;;9.05;3.47;;;14.20;76.90;;;;;;4993690;28;20038;-73
2023/06/05 00:22:44;;;;;;;5.90;2.45;;;14.20;77.00;;;;;;4994848;28;20118;-73
2023/06/05 00:25:10;;;;;;;5.43;2.72;;;14.10;77.00;;;;;;4994750;28;20030;-72
2023/06/05 00:27:35;;;;;;;6.75;2.72;;;14.10;76.90;;;;;;4977474;28;20030;-73
2023/06/05 00:30:01;;;;;;;7.28;3.58;;;14.10;77.20;;;;;;4993440;28;20054;-72
2023/06/05 00:32:27;;;;;;;8.65;3.33;;;14.00;77.70;;;;;;4993686;28;20137;-73
2023/06/05 00:34:52;;;;;;;7.05;2.85;;;14.00;78.00;;;;;;4977097;28;20027;-73
2023/06/05 00:37:20;;;;;;;6.53;3.10;;;13.90;78.20;;;;;;4977182;28;20033;-73
2023/06/05 00:39:46;;;;;;;6.28;3.08;;;13.90;78.20;;;;;;4994421;28;20037;-73
2023/06/05 00:42:11;;;;;;;7.22;3.42;;;13.80;78.20;;;;;;4993197;28;20030;-73
2023/06/05 00:44:37;;;;;;;7.28;3.22;;;13.80;78.20;;;;;;4994289;28;20040;-73
2023/06/05 00:47:04;;;;;;;6.40;3.10;;;13.80;78.30;;;;;;4994392;28;20387;-72
2023/06/05 00:49:31;;;;;;;8.90;3.00;;;13.70;78.80;;;;;;4994278;28;20077;-73
2023/06/05 00:51:57;;;;;;;6.57;3.55;;;13.70;78.90;;;;;;4976967;28;20031;-73
2023/06/05 00:54:23;;;;;;;7.72;3.42;;;13.70;79.20;;;;;;4976813;28;20019;-72
2023/06/05 00:56:49;;;;;;;7.68;3.83;;;13.60;79.30;;;;;;4993999;28;20037;-72
2023/06/05 00:59:16;;;;;;;9.05;3.80;;;13.60;79.70;;;;;;4992971;28;20069;-72
2023/06/05 01:01:42;;;;;;;7.43;3.53;;;13.50;79.70;;;;;;4992968;28;20475;-74
2023/06/05 01:04:08;;;;;;;8.80;3.80;;;13.50;79.60;;;;;;4993076;28;20395;-73
2023/06/05 01:06:35;;;;;;;6.05;2.95;;;13.40;79.30;;;;;;4992744;28;20026;-72
2023/06/05 01:09:02;;;;;;;9.38;4.00;;;13.40;79.60;;;;;;4994130;28;20485;-73
2023/06/05 01:12:05;;;;;;;6.35;3.33;;;13.40;80.10;;;;;;4992996;28;20093;-73
2023/06/05 01:14:35;;;;;;;8.40;3.78;;;13.30;80.10;;;;;;4993951;28;20030;-73
2023/06/05 01:17:02;;;;;;;7.75;3.97;;;13.30;80.20;;;;;;4994113;28;20104;-73
2023/06/05 01:19:30;;;;;;;9.57;3.85;;;13.30;80.20;;;;;;4993903;28;20034;-72
2023/06/05 01:22:00;;;;;;;6.03;3.53;;;13.20;80.40;;;;;;4992661;28;20113;-73
2023/06/05 01:24:27;;;;;;;8.57;4.15;;;13.20;81.10;;;;;;4996138;28;20080;-73
2023/06/05 01:27:00;;;;;;;6.88;4.18;;;13.20;81.00;;;;;;4996675;28;20058;-73
2023/06/05 01:29:42;;;;;;;8.57;4.43;;;13.10;81.10;;;;;;4996762;28;20026;-73
2023/06/05 01:32:16;;;;;;;7.93;4.05;;;13.10;80.70;;;;;;4997608;28;20133;-74
2023/06/05 01:34:43;;;;;;;9.70;4.43;;;13.10;81.60;;;;;;4997822;28;20131;-73
2023/06/05 01:37:14;;;;;;;9.02;4.15;;;13.00;81.70;;;;;;4996552;28;20062;-72
2023/06/05 01:39:41;;;;;;;8.52;5.03;;;13.00;81.70;;;;;;4996685;28;20027;-72
2023/06/05 01:42:09;;;;;;;8.85;4.32;;;13.00;81.60;;;;;;4997957;28;20030;-73
2023/06/05 01:44:35;;;;;;;7.80;4.43;;;12.90;81.70;;;;;;4997880;28;20027;-72
2023/06/05 01:47:01;;;;;;;8.70;4.85;;;13.00;81.90;;;;;;4997623;28;20164;-73
2023/06/05 01:49:27;;;;;;;7.93;4.72;;;12.90;81.80;;;;;;4997726;28;20022;-72
2023/06/05 01:51:54;;;;;;;10.23;5.38;;;12.90;82.70;;;;;;4997573;28;20033;-73
2023/06/05 01:54:23;;;;;;;10.32;4.85;;;12.80;83.00;;;;;;4980247;28;20027;-73
2023/06/05 01:56:49;;;;;;;8.82;4.45;;;12.80;83.20;;;;;;4996059;28;20034;-73
2023/06/05 01:59:15;;;;;;;6.72;4.30;;;12.80;82.60;;;;;;4996383;28;20041;-73
2023/06/05 02:01:43;;;;;;;10.07;4.68;;;12.80;83.30;;;;;;4980058;28;20026;-73
2023/06/05 02:04:10;;;;;;;9.68;5.00;;;12.70;83.10;;;;;;4996053;28;20022;-73
2023/06/05 02:06:41;;;;;;;8.20;4.97;;;12.70;83.70;;;;;;4997187;28;20027;-73
2023/06/05 02:09:08;;;;;;;7.93;4.93;;;12.70;83.50;;;;;;4996266;28;20027;-73
2023/06/05 02:11:37;;;;;;;9.00;4.60;;;12.70;83.70;;;;;;4964131;28;20036;-73
2023/06/05 02:14:06;;;;;;;9.30;5.30;;;12.70;83.90;;;;;;4995923;28;20026;-73
2023/06/05 02:16:33;;;;;;;8.98;5.07;;;12.60;84.00;;;;;;4997000;28;20030;-72
2023/06/05 02:19:03;;;;;;;8.15;5.07;;;12.60;84.00;;;;;;4997188;28;20049;-72
2023/06/05 02:21:32;;;;;;;8.18;4.88;;;12.60;84.10;;;;;;4997168;28;20026;-72
2023/06/05 02:24:00;;;;;;;8.75;4.72;;;12.60;84.00;;;;;;4996992;28;20050;-72
2023/06/05 02:26:27;;;;;;;12.95;5.45;;;12.60;83.80;;;;;;4979624;28;20061;-73
2023/06/05 02:28:55;;;;;;;9.57;5.30;;;12.50;84.50;;;;;;4996949;28;20027;-72
2023/06/05 02:31:28;;;;;;;10.38;5.25;;;12.50;84.60;;;;;;4995690;28;20022;-72
2023/06/05 02:33:55;;;;;;;10.50;6.27;;;12.50;84.50;;;;;;4996768;28;20129;-73
2023/06/05 02:36:22;;;;;;;10.02;6.28;;;12.40;84.80;;;;;;4995536;28;20097;-73
2023/06/05 02:38:50;;;;;;;10.70;5.93;;;12.30;85.20;;;;;;4996626;28;20022;-72
2023/06/05 02:41:17;;;;;;;11.70;5.65;;;12.30;85.30;;;;;;4996655;28;20030;-73
2023/06/05 02:43:43;;;;;;;11.53;5.53;;;12.30;85.30;;;;;;4995339;28;20050;-72
2023/06/05 02:46:09;;;;;;;8.77;5.72;;;12.30;85.40;;;;;;4996527;28;20487;-72
2023/06/05 02:48:35;;;;;;;10.75;5.80;;;12.20;85.60;;;;;;4996860;28;20042;-72
2023/06/05 02:51:00;;;;;;;11.70;6.35;;;12.20;85.70;;;;;;4996415;28;20426;-73
2023/06/05 02:53:26;;;;;;;9.80;6.17;;;12.20;85.90;;;;;;4995440;28;20034;-72
2023/06/05 02:55:53;;;;;;;11.70;6.53;;;12.20;85.60;;;;;;4995167;28;20173;-72
2023/06/05 02:58:19;;;;;;;10.15;5.80;;;12.10;86.00;;;;;;4995323;28;20045;-73
2023/06/05 03:00:46;;;;;;;11.30;6.43;;;12.10;85.60;;;;;;4995054;28;20023;-72
2023/06/05 03:03:12;;;;;;;12.15;5.85;;;12.10;86.10;;;;;;4996264;28;20030;-72
2023/06/05 03:05:40;;;;;;;11.40;6.33;;;12.00;86.10;;;;;;4978881;28;20069;-73
2023/06/05 03:08:06;;;;;;;11.38;6.80;;;12.00;86.30;;;;;;4996144;28;20486;-73
2023/06/05 03:10:32;;;;;;;13.60;6.85;;;12.00;86.30;;;;;;4994839;28;20041;-72
2023/06/05 03:12:58;;;;;;;10.35;6.00;;;12.00;86.20;;;;;;4978630;28;20037;-72
2023/06/05 03:15:24;;;;;;;14.47;7.37;;;12.00;86.30;;;;;;4996197;28;20038;-73
2023/06/05 03:17:49;;;;;;;12.63;6.30;;;11.90;86.60;;;;;;4995858;28;20026;-72
2023/06/05 03:20:19;;;;;;;9.67;6.33;;;11.90;86.70;;;;;;4994747;28;20360;-72
2023/06/05 03:22:45;;;;;;;13.73;7.00;;;11.90;86.70;;;;;;4995840;28;20471;-73
2023/06/05 03:25:10;;;;;;;12.27;6.43;;;11.80;86.70;;;;;;4994761;28;20034;-72
2023/06/05 03:27:36;;;;;;;10.50;6.27;;;11.80;86.70;;;;;;4994573;28;20364;-72
2023/06/05 03:30:03;;;;;;;13.73;7.77;;;11.80;87.00;;;;;;4962297;28;20062;-73
2023/06/05 03:32:29;;;;;;;12.53;6.90;;;11.80;87.30;;;;;;4995600;28;20140;-72
2023/06/05 03:34:55;;;;;;;13.73;6.80;;;11.80;87.90;;;;;;4978312;28;20034;-73
2023/06/05 03:37:21;;;;;;;10.77;6.30;;;11.70;87.70;;;;;;4995922;28;20038;-72
2023/06/05 03:39:47;;;;;;;10.83;6.63;;;11.70;87.40;;;;;;4995568;28;20054;-73
2023/06/05 03:42:12;;;;;;;13.67;6.67;;;11.70;87.40;;;;;;4994396;28;20035;-72
2023/06/05 03:44:38;;;;;;;10.77;6.70;;;11.70;87.70;;;;;;4995519;28;20042;-73
2023/06/05 03:47:05;;;;;;;12.17;7.23;;;11.70;88.10;;;;;;4994191;28;20038;-72
2023/06/05 03:49:31;;;;;;;14.13;7.53;;;11.70;88.60;;;;;;4994120;28;20042;-72
2023/06/05 03:52:03;;;;;;;16.70;8.07;;;11.60;88.80;;;;;;4995403;28;20038;-72
2023/06/05 03:54:32;;;;;;;13.80;7.23;;;11.60;88.90;;;;;;4995562;28;20553;-72
2023/06/05 03:57:00;;;;;;;10.10;6.70;;;11.60;89.00;;;;;;4995174;28;20026;-73
2023/06/05 03:59:27;;;;;;;14.50;7.50;;;11.60;89.20;;;;;;4994162;28;20427;-72
2023/06/05 04:01:54;;;;;;;13.37;7.47;;;11.60;89.20;;;;;;4993944;28;20041;-72
2023/06/05 04:04:20;;;;;;;12.87;6.73;;;11.60;89.20;;;;;;4961800;28;20372;-72
2023/06/05 04:06:46;;;;;;;13.20;7.73;;;11.60;89.30;;;;;;4993803;28;20037;-73
2023/06/05 04:09:12;;;;;;;13.02;6.93;;;11.60;89.10;;;;;;4994997;28;20438;-72
2023/06/05 04:11:42;;;;;;;11.38;7.15;;;11.60;89.40;;;;;;4977564;28;20061;-74
2023/06/05 04:14:09;;;;;;;11.17;6.97;;;11.60;89.40;;;;;;4994951;28;20038;-72
2023/06/05 04:16:38;;;;;;;17.83;7.47;;;11.60;89.70;;;;;;4993665;28;20034;-72
2023/06/05 04:19:06;;;;;;;12.07;7.60;;;11.60;90.00;;;;;;4977818;28;20457;-72
2023/06/05 04:21:34;;;;;;;14.77;8.10;;;11.50;89.90;;;;;;4995005;28;20541;-72
2023/06/05 04:23:59;;;;;;;13.73;7.27;;;11.60;90.00;;;;;;4993949;28;20406;-72
2023/06/05 04:26:26;;;;;;;12.00;6.87;;;11.60;90.00;;;;;;4993680;28;20034;-72
2023/06/05 04:28:52;;;;;;;14.40;7.63;;;11.60;90.10;;;;;;4961556;28;20026;-73
2023/06/05 04:31:17;;;;;;;12.40;7.77;;;11.60;90.20;;;;;;4977106;28;20065;-72
2023/06/05 04:33:43;;;;;;;11.53;7.70;;;11.60;90.40;;;;;;4994433;28;20176;-72
2023/06/05 04:36:09;;;;;;;14.13;8.43;;;11.50;90.40;;;;;;4993216;28;20501;-72
2023/06/05 04:38:35;;;;;;;12.30;8.03;;;11.60;90.30;;;;;;4976994;28;20026;-79
2023/06/05 04:41:00;;;;;;;13.50;8.10;;;11.50;90.60;;;;;;4994823;28;20475;-79
2023/06/05 04:43:26;;;;;;;16.20;9.10;;;11.60;90.70;;;;;;5000663;28;20030;-80
2023/06/05 04:45:51;;;;;;;16.13;8.50;;;11.60;90.90;;;;;;5012989;28;20395;-80
2023/06/05 04:48:17;;;;;;;13.67;7.67;;;11.60;91.20;;;;;;5018254;28;20022;-79
2023/06/05 04:50:43;;;;;;;17.13;8.00;;;11.60;91.00;;;;;;4994269;28;20390;-81
2023/06/05 04:53:08;;;;;;;12.03;7.43;;;11.60;91.20;;;;;;5009551;28;20038;-77
2023/06/05 04:55:34;;;;;;;14.20;8.10;;;11.60;91.10;;;;;;5009567;28;20031;-78
2023/06/05 04:58:00;;;;;;;13.87;7.60;;;11.60;91.20;;;;;;4993766;28;20113;-78
2023/06/05 05:00:26;;;;;;;15.40;8.17;;;11.60;91.20;;;;;;5009273;28;20019;-80
2023/06/05 05:02:53;;;;;;;12.90;7.33;;;11.60;91.30;;;;;;5009138;28;20050;-80
2023/06/05 05:05:19;;;;;;;13.03;7.00;;;11.60;91.40;;;;;;4994125;28;20019;-81
2023/06/05 05:07:45;;;;;;;12.10;7.13;;;11.70;91.40;;;;;;4994200;28;20101;-79
2023/06/05 05:10:11;;;;;;;14.60;7.50;;;11.70;91.70;;;;;;4994205;28;20435;-80
2023/06/05 05:12:38;;;;;;;11.90;8.20;;;11.70;91.50;;;;;;4992962;28;20022;-79
2023/06/05 05:15:04;;;;;;;15.85;8.57;;;11.70;91.50;;;;;;4994202;28;20110;-80
2023/06/05 05:17:33;;;;;;;15.73;8.30;;;11.80;91.70;;;;;;4992602;28;20045;-78
2023/06/05 05:19:58;;;;;;;13.35;7.15;;;11.80;91.70;;;;;;4986990;28;20058;-80
2023/06/05 05:22:26;;;;;;;12.13;6.77;;;11.80;91.60;;;;;;4988003;28;20081;-81
2023/06/05 05:24:51;;;;;;;11.98;7.20;;;11.80;91.70;;;;;;4981661;28;20376;-81
2023/06/05 05:27:17;;;;;;;12.15;7.20;;;11.90;91.60;;;;;;5015140;28;20041;-80
2023/06/05 05:29:42;;;;;;;13.20;7.15;;;11.90;91.70;;;;;;5001379;28;20428;-83
2023/06/05 05:32:08;;;;;;;13.03;6.47;;;12.00;91.70;;;;;;4988801;28;20556;-81
2023/06/05 05:34:34;;;;;;;12.93;7.00;;;12.00;91.60;;;;;;4974643;28;20041;-78
2023/06/05 05:37:01;;;;;;;15.30;7.35;;;12.10;91.60;;;;;;4979582;28;20110;-80
2023/06/05 05:39:26;;;;;;;15.38;7.55;;;12.10;91.60;;;;;;4982549;28;20023;-81
2023/06/05 05:41:52;;;;;;;13.82;7.82;;;12.10;91.60;;;;;;4982824;28;20030;-79
2023/06/05 05:44:19;;;;;;;15.30;6.88;;;12.10;91.60;;;;;;5001422;28;20054;-72
2023/06/05 05:46:46;;;;;;;13.18;7.72;;;12.20;91.60;;;;;;4984021;28;20498;-79
2023/06/05 05:49:12;;;;;;;12.50;7.10;;;12.20;91.50;;;;;;4984282;28;20106;-78
2023/06/05 05:51:37;;;;;;;14.45;6.72;;;12.30;91.50;;;;;;4982788;28;20106;-77
2023/06/05 05:54:03;;;;;;;13.60;7.28;;;12.30;91.40;;;;;;4983243;28;20391;-81
2023/06/05 05:56:29;;;;;;;13.38;6.82;;;12.40;91.40;;;;;;4983809;28;20030;-78
2023/06/05 05:58:54;;;;;;;13.45;8.30;;;12.40;91.50;;;;;;4990789;28;20082;-77
2023/06/05 06:01:21;;;;;;;11.35;6.85;;;12.40;91.30;;;;;;5008068;28;20422;-77
2023/06/05 06:03:48;;;;;;;11.73;6.55;;;12.50;91.30;;;;;;5007483;28;20026;-77
2023/06/05 06:06:13;;;;;;;12.80;6.97;;;12.50;91.30;;;;;;4993516;28;20018;-79
2023/06/05 06:08:39;;;;;;;11.80;6.97;;;12.50;91.20;;;;;;5008593;28;20058;-77
2023/06/05 06:11:06;;;;;;;9.95;6.13;;;12.60;91.20;;;;;;4995922;28;20025;-79
2023/06/05 06:13:33;;;;;;;9.60;5.53;;;12.60;91.20;;;;;;5009630;28;20080;-80
2023/06/05 06:15:59;;;;;;;10.57;6.57;;;12.70;91.10;;;;;;5000442;28;20073;-77
2023/06/05 06:18:25;;;;;;;11.82;6.45;;;12.80;91.30;;;;;;4977128;28;20126;-78
2023/06/05 06:20:51;;;;;;;11.15;6.55;;;12.80;91.00;;;;;;4991779;28;20023;-80
2023/06/05 06:23:16;;;;;;;14.85;6.45;;;12.90;90.90;;;;;;4978243;28;20027;-73
2023/06/05 06:25:42;;;;;;;13.65;6.18;;;12.90;90.90;;;;;;4975638;28;20035;-72
2023/06/05 06:28:08;;;;;;;13.80;7.25;;;12.90;90.80;;;;;;4993374;28;20509;-72
2023/06/05 06:30:33;;;;;;;13.57;7.07;;;12.90;90.60;;;;;;4995566;28;20030;-73
2023/06/05 06:32:59;;;;;;;13.65;6.38;;;13.00;90.40;;;;;;4992592;28;20043;-73
2023/06/05 06:35:25;;;;;;;15.70;6.32;;;13.00;90.40;;;;;;4984633;28;20429;-73
2023/06/05 06:37:56;;;;;;;13.77;7.40;;;13.10;90.50;;;;;;4977021;28;20053;-73
2023/06/05 06:40:22;;;;;;;10.65;5.68;;;13.10;90.30;;;;;;4977154;28;20055;-72
2023/06/05 06:42:47;;;;;;;12.73;5.50;;;13.10;90.20;;;;;;4979630;28;20519;-72
2023/06/05 06:45:13;;;;;;;9.85;4.93;;;13.20;90.20;;;;;;4987006;28;20018;-73
2023/06/05 06:47:38;;;;;;;10.38;5.53;;;13.20;90.20;;;;;;4978080;28;20439;-73
2023/06/05 06:50:05;;;;;;;10.50;5.30;;;13.30;90.00;;;;;;4974495;28;20082;-72
2023/06/05 06:52:30;;;;;;;15.65;6.38;;;13.30;90.00;;;;;;4976536;28;20058;-72
2023/06/05 06:54:56;;;;;;;12.32;5.30;;;13.40;90.00;;;;;;4976866;28;20538;-72
2023/06/05 06:57:22;;;;;;;14.45;5.38;;;13.50;89.50;;;;;;4991701;28;20027;-73
2023/06/05 06:59:47;;;;;;;12.00;5.68;;;13.50;89.30;;;;;;4976609;28;20023;-72
2023/06/05 07:02:15;;;;;;;11.02;5.35;;;13.60;88.80;;;;;;4981585;28;20034;-74
2023/06/05 07:04:43;;;;;;;9.35;4.50;;;13.70;88.60;;;;;;4982302;28;20023;-73
2023/06/05 07:07:14;;;;;;;11.60;5.05;;;13.70;88.60;;;;;;4989979;28;20447;-73
2023/06/05 07:09:40;;;;;;;10.23;3.72;;;13.80;88.50;;;;;;4975279;28;20034;-74
2023/06/05 07:12:08;;;;;;;8.73;4.57;;;13.90;88.60;;;;;;4974537;28;20041;-73
2023/06/05 07:14:34;;;;;;;9.75;4.68;;;14.00;88.20;;;;;;4975881;28;20102;-72
2023/06/05 07:17:00;;;;;;;11.70;4.90;;;14.00;88.10;;;;;;4974873;28;20118;-73
2023/06/05 07:19:27;;;;;;;7.05;4.05;;;14.10;87.40;;;;;;4976275;28;20472;-73
2023/06/05 07:21:55;;;;;;;6.45;4.00;;;14.20;87.30;;;;;;4975272;28;20027;-80
2023/06/05 07:24:20;;;;;;;7.20;3.65;;;14.20;87.40;;;;;;4975977;28;20027;-81
2023/06/05 07:26:46;;;;;;;7.38;3.65;;;14.30;87.30;;;;;;4975920;28;20049;-79
2023/06/05 07:29:13;;;;;;;7.50;3.83;;;14.40;87.20;;;;;;4975123;28;20039;-73
2023/06/05 07:31:39;;;;;;;10.10;4.63;;;14.50;86.90;;;;;;4991414;28;20030;-73
2023/06/05 07:34:05;;;;;;;7.65;3.67;;;14.50;86.70;;;;;;4975884;28;20058;-73
2023/06/05 07:36:31;;;;;;;11.23;4.07;;;14.60;86.20;;;;;;4991182;28;20045;-81
2023/06/05 07:38:56;;;;;;;6.80;3.78;;;14.70;85.80;;;;;;4976439;28;20479;-79
2023/06/05 07:41:22;;;;;;;8.50;3.63;;;14.80;85.80;;;;;;4990780;28;20030;-79
2023/06/05 07:43:47;;;;;;;9.50;3.38;;;14.80;85.70;;;;;;4993909;28;20033;-83
2023/06/05 07:46:14;;;;;;;6.78;3.17;;;14.90;85.60;;;;;;4994303;28;20027;-80
2023/06/05 07:48:41;;;;;;;6.80;3.50;;;15.00;85.50;;;;;;4995407;28;20081;-79
2023/06/05 07:51:08;;;;;;;8.55;3.60;;;15.10;85.30;;;;;;4994423;28;20034;-79
2023/06/05 07:53:34;;;;;;;7.93;3.40;;;15.20;84.90;;;;;;4995426;28;20117;-79
2023/06/05 07:55:59;;;;;;;8.18;3.85;;;15.30;84.80;;;;;;4994393;28;20525;-80
2023/06/05 07:58:27;;;;;;;9.13;4.20;;;15.30;84.00;;;;;;5010818;28;20034;-80
2023/06/05 08:00:53;;;;;;;8.18;3.42;;;15.40;83.90;;;;;;5010596;28;20022;-78
2023/06/05 08:03:19;;;;;;;9.25;4.15;;;15.50;84.00;;;;;;5010582;28;20042;-79
2023/06/05 08:05:49;;;;;;;10.23;3.85;;;15.50;83.60;;;;;;4995188;28;20027;-79
2023/06/05 08:08:15;;;;;;;7.95;3.72;;;15.60;83.10;;;;;;4975982;28;20415;-73
2023/06/05 08:10:41;;;;;;;7.38;3.40;;;15.70;82.90;;;;;;4975620;28;20031;-73
2023/06/05 08:13:10;;;;;;;9.48;3.50;;;15.70;82.60;;;;;;4990285;28;20054;-73
2023/06/05 08:15:36;;;;;;;8.50;3.70;;;15.80;82.50;;;;;;4974058;28;20038;-72
2023/06/05 08:18:02;;;;;;;8.20;3.83;;;15.90;82.10;;;;;;4975565;28;20534;-73
2023/06/05 08:20:27;;;;;;;7.28;3.28;;;16.00;82.00;;;;;;4974426;28;20053;-74
2023/06/05 08:22:57;;;;;;;7.55;2.92;;;16.00;81.80;;;;;;4975339;28;20078;-74
2023/06/05 08:25:26;;;;;;;6.82;3.50;;;16.10;81.60;;;;;;4975335;28;20030;-73
2023/06/05 08:27:52;;;;;;;9.10;4.25;;;16.20;81.80;;;;;;4974104;28;20036;-74
2023/06/05 08:30:18;;;;;;;7.80;3.85;;;16.20;80.80;;;;;;4973806;28;20093;-74
2023/06/05 08:32:44;;;;;;;11.00;3.80;;;16.30;81.50;;;;;;4990585;28;20049;-73
2023/06/05 08:35:12;;;;;;;9.75;4.15;;;16.40;80.80;;;;;;4992776;28;20542;-73
2023/06/05 08:37:38;;;;;;;7.47;3.72;;;16.40;80.70;;;;;;4993185;28;20038;-73
2023/06/05 08:40:08;;;;;;;6.82;3.03;;;16.50;80.70;;;;;;4993111;28;20468;-74
2023/06/05 08:42:34;;;;;;;7.40;2.90;;;16.50;80.70;;;;;;5009365;28;20137;-73
2023/06/05 08:45:00;;;;;;;7.93;3.00;;;16.60;80.80;;;;;;4994385;28;20030;-74
2023/06/05 08:47:30;;;;;;;6.07;2.55;;;16.60;80.70;;;;;;5009434;28;20054;-71
2023/06/05 08:49:57;;;;;;;7.72;2.63;;;16.70;80.50;;;;;;5006501;28;20034;-71
2023/06/05 08:52:25;;;;;;;5.55;2.80;;;16.80;80.40;;;;;;4988225;28;20053;-72
2023/06/05 08:54:51;;;;;;;6.65;2.75;;;16.90;80.30;;;;;;4994391;28;20031;-72
2023/06/05 08:57:17;;;;;;;10.25;2.80;;;17.00;80.10;;;;;;4993335;28;20408;-73
2023/06/05 08:59:43;;;;;;;8.68;3.42;;;17.00;79.80;;;;;;4993605;28;20029;-73
2023/06/05 09:02:11;;;;;;;7.20;2.85;;;17.10;79.60;;;;;;4994242;28;20479;-71
2023/06/05 09:04:39;;;;;;;4.97;2.47;;;17.20;79.40;;;;;;4993833;28;20038;-72
2023/06/05 09:07:06;;;;;;;5.18;2.75;;;17.20;79.20;;;;;;4994071;28;20037;-72
2023/06/05 09:09:33;;;;;;;5.47;2.70;;;17.40;79.10;;;;;;4993968;28;20029;-72
2023/06/05 09:12:07;;;;;;;9.85;2.80;;;17.40;78.90;;;;;;4993912;28;20061;-75
2023/06/05 09:14:33;;;;;;;9.32;3.15;;;17.50;78.70;;;;;;4993950;28;20023;-74
2023/06/05 09:17:01;;;;;;;7.07;2.28;;;17.50;78.40;;;;;;4992492;28;20085;-72
2023/06/05 09:19:40;;;;;;;9.57;2.92;;;17.70;78.80;;;;;;4992566;28;20038;-72
2023/06/05 09:22:08;;;;;;;6.50;2.60;;;17.70;77.80;;;;;;4993859;28;20019;-72
2023/06/05 09:24:34;;;;;;;6.45;2.15;;;17.80;77.60;;;;;;4993912;28;20026;-72
2023/06/05 09:27:10;;;;;;;7.72;2.55;;;17.90;77.70;;;;;;4993819;28;20118;-72
2023/06/05 09:29:38;;;;;;;5.68;2.60;;;18.00;77.60;;;;;;4993708;28;20104;-72
2023/06/05 09:32:23;;;;;;;4.13;2.35;;;18.10;77.30;;;;;;4993493;28;20030;-78
2023/06/05 09:35:00;;;;;;;5.38;2.15;;;18.20;77.10;;;;;;5007176;28;20046;-78
2023/06/05 09:37:36;;;;;;;5.88;2.38;;;18.30;76.70;;;;;;4994210;28;20034;-77
2023/06/05 09:40:04;;;;;;;5.75;2.75;;;18.40;76.30;;;;;;4993807;28;20487;-81
2023/06/05 09:42:34;;;;;;;4.90;2.25;;;18.50;76.00;;;;;;4993754;28;20023;-78
2023/06/05 09:45:01;;;;;;;4.20;2.20;;;18.60;75.70;;;;;;4995562;28;20026;-80
2023/06/05 09:47:27;;;;;;;4.82;2.05;;;18.70;75.50;;;;;;4998062;28;20367;-81
2023/06/05 09:49:53;;;;;;;5.93;2.47;;;18.80;75.10;;;;;;4997840;28;20030;-77
2023/06/05 09:52:19;;;;;;;5.47;2.20;;;18.80;74.90;;;;;;4996351;28;20469;-79
2023/06/05 09:54:46;;;;;;;5.45;2.22;;;19.00;74.50;;;;;;4997636;28;20035;-77
2023/06/05 09:57:13;;;;;;;5.22;2.10;;;19.10;74.10;;;;;;4997598;28;20055;-80
2023/06/05 09:59:54;;;;;;;4.70;2.08;;;19.10;73.60;;;;;;4997576;28;20043;-79
2023/06/05 10:02:22;;;;;;;5.80;1.88;;;19.30;73.70;;;;;;4997816;28;20014;-78
2023/06/05 10:05:15;;;;;;;6.15;2.15;;;19.40;72.80;;;;;;4997527;28;20030;-82
2023/06/05 10:07:41;;;;;;;6.05;2.60;;;19.40;72.40;;;;;;4997321;28;20495;-80
2023/06/05 10:10:09;;;;;;;4.45;2.22;;;19.60;72.50;;;;;;4996164;28;20364;-79
2023/06/05 10:12:36;;;;;;;5.45;1.80;;;19.60;72.30;;;;;;4997563;28;20117;-81
2023/06/05 10:15:02;;;;;;;6.40;2.47;;;19.70;72.20;;;;;;4997438;28;20120;-79
2023/06/05 10:17:28;;;;;;;6.65;1.92;;;19.80;72.00;;;;;;4998013;28;20030;-79
2023/06/05 10:19:54;;;;;;;4.93;1.90;;;19.90;71.80;;;;;;4997589;28;20044;-78
2023/06/05 10:22:20;;;;;;;5.05;1.80;;;20.10;71.40;;;;;;4997621;28;20030;-79
2023/06/05 10:24:51;;;;;;;4.25;1.77;;;20.10;70.90;;;;;;4997980;28;20479;-79
2023/06/05 10:27:45;;;;;;;5.32;1.73;;;20.30;70.30;;;;;;4997246;28;20038;-77
2023/06/05 10:30:58;;;;;;;5.57;2.13;;;20.30;69.80;;;;;;4997838;28;20157;-80
2023/06/05 10:33:40;;;;;;;5.22;2.05;;;20.50;69.30;;;;;;4997167;28;20054;-80
2023/06/05 10:36:18;;;;;;;6.15;2.00;;;20.70;69.30;;;;;;4996333;28;20031;-82
2023/06/05 10:38:44;;;;;;;5.93;2.35;;;20.80;68.70;;;;;;4998273;28;20022;-79
2023/06/05 10:41:11;;;;;;;3.42;1.85;;;21.00;68.30;;;;;;5012429;28;20030;-78
2023/06/05 10:43:49;;;;;;;6.05;2.03;;;21.20;67.70;;;;;;4996215;28;20387;-81
2023/06/05 10:46:42;;;;;;;6.03;1.75;;;21.30;67.00;;;;;;5011896;28;20081;-75
2023/06/05 10:49:12;;;;;;;6.93;1.70;;;21.50;66.30;;;;;;4996369;28;20042;-76
2023/06/05 10:51:48;;;;;;;3.53;1.50;;;21.70;66.40;;;;;;4996642;28;20073;-74
2023/06/05 10:54:23;;;;;;;5.85;1.77;;;21.90;65.90;;;;;;4996711;28;20026;-75
2023/06/05 10:57:05;;;;;;;5.43;1.95;;;22.20;65.20;;;;;;4995245;28;20061;-76
2023/06/05 10:59:39;;;;;;;7.93;2.13;;;22.40;64.90;;;;;;4995125;28;20033;-76
2023/06/05 11:02:11;;;;;;;5.47;1.80;;;22.60;64.50;;;;;;5011424;28;20041;-76
2023/06/05 11:04:43;;;;;;;5.28;1.83;;;22.90;64.30;;;;;;4996196;28;20018;-73
2023/06/05 11:07:24;;;;;;;3.42;1.67;;;23.10;63.80;;;;;;4996078;28;20057;-74
2023/06/05 11:10:15;;;;;;;6.30;2.05;;;23.30;63.20;;;;;;5011383;28;20134;-74
2023/06/05 11:12:40;;;;;;;6.13;1.40;;;23.60;62.30;;;;;;4996157;28;20085;-73
2023/06/05 11:15:14;;;;;;;5.38;1.67;;;23.80;62.30;;;;;;4996217;28;20038;-81
2023/06/05 11:17:42;;;;;;;3.95;1.45;;;23.90;61.40;;;;;;4996473;28;20027;-79
2023/06/05 11:20:29;;;;;;;6.82;1.40;;;24.10;60.90;;;;;;4997292;28;20027;-82
2023/06/05 11:22:57;;;;;;;5.35;1.70;;;24.30;60.10;;;;;;4996502;28;20045;-80
2023/06/05 11:25:30;;;;;;;5.18;1.63;;;24.60;59.70;;;;;;4995925;28;20031;-80
2023/06/05 11:28:01;;;;;;;4.65;1.50;;;24.80;59.20;;;;;;4997332;28;20031;-80
2023/06/05 11:30:38;;;;;;;3.22;1.25;;;25.00;58.70;;;;;;5000672;28;20092;-77
2023/06/05 11:33:12;;;;;;;4.18;1.15;;;25.20;58.20;;;;;;4995718;28;20057;-83
2023/06/05 11:35:39;;;;;;;4.68;1.10;;;25.40;57.50;;;;;;5010601;28;20060;-83
2023/06/05 11:38:31;;;;;;;2.80;1.10;;;25.60;56.90;;;;;;4995830;28;20030;-81
2023/06/05 11:40:57;;;;;;;3.40;1.27;;;25.80;55.80;;;;;;4995312;28;20069;-82
2023/06/05 11:43:23;;;;;;;4.35;1.40;;;26.00;55.90;;;;;;4996603;28;20031;-78
2023/06/05 11:45:56;;;;;;;4.00;1.10;;;26.10;55.20;;;;;;4997635;28;20402;-78
2023/06/05 11:48:22;;;;;;;5.80;1.38;;;26.30;54.40;;;;;;4996159;28;20031;-81
2023/06/05 11:51:03;;;;;;;2.80;1.45;;;26.50;54.20;;;;;;5010705;28;20034;-79
2023/06/05 11:53:31;;;;;;;5.00;2.10;;;26.80;53.30;;;;;;4994295;28;20033;-77
2023/06/05 11:58:30;;;;;;;4.63;1.92;;;27.10;52.60;;;;;;4977840;28;20053;-79
2023/06/05 12:01:21;;;;;;;3.50;1.80;;;27.30;52.10;;;;;;4978792;28;20022;-79
2023/06/05 12:03:48;;;;;;;6.80;2.75;;;27.60;51.30;;;;;;4999715;28;20034;-80
2023/06/05 12:06:16;;;;;;;7.45;3.20;;;27.80;51.30;;;;;;4995199;28;20031;-79
2023/06/05 12:08:42;;;;;;;5.55;2.58;;;28.00;50.80;;;;;;4995044;28;20110;-79
2023/06/05 12:11:25;;;;;;;3.70;1.52;;;28.10;50.30;;;;;;4995000;28;20030;-80
2023/06/05 12:13:53;;;;;;;4.00;1.40;;;28.30;49.20;;;;;;4994939;28;20006;-80
2023/06/05 12:16:30;;;;;;;3.28;1.10;;;28.50;49.40;;;;;;4994823;28;20387;-80
2023/06/05 12:18:56;;;;;;;5.50;0.98;;;28.80;49.00;;;;;;4994769;28;20061;-78
2023/06/05 12:21:23;;;;;;;3.17;1.40;;;29.00;48.50;;;;;;4994706;28;20042;-78
2023/06/05 12:23:49;;;;;;;3.75;1.02;;;29.10;47.90;;;;;;4993534;28;20018;-78
2023/06/05 12:26:16;;;;;;;4.22;1.23;;;29.30;47.60;;;;;;4993658;28;20533;-79
2023/06/05 12:28:43;;;;;;;2.30;1.02;;;29.40;47.10;;;;;;4993477;28;20022;-77
2023/06/05 12:31:08;;;;;;;4.78;1.58;;;29.70;46.70;;;;;;5009364;28;20038;-79
2023/06/05 12:33:46;;;;;;;5.55;1.38;;;29.90;46.30;;;;;;5009486;28;20137;-80
2023/06/05 12:36:12;;;;;;;5.78;1.35;;;30.10;45.50;;;;;;4993486;28;20503;-80
2023/06/05 12:38:40;;;;;;;5.55;1.60;;;30.40;45.70;;;;;;4994513;28;20471;-79
2023/06/05 12:41:06;;;;;;;3.72;1.60;;;30.60;45.40;;;;;;4994394;28;20031;-80
2023/06/05 12:43:33;;;;;;;3.45;1.33;;;30.70;45.10;;;;;;4993859;28;20025;-76
2023/06/05 12:45:59;;;;;;;4.53;1.30;;;30.90;44.70;;;;;;4986900;28;20064;-75
2023/06/05 12:48:25;;;;;;;2.78;0.95;;;31.10;44.20;;;;;;4989974;28;20522;-75
2023/06/05 12:50:51;;;;;;;2.53;1.10;;;31.20;43.90;;;;;;4993013;28;20035;-76